Flight Track Log - Related Links

Times and Time Zones

All times are in EDT time to prevent confusion due to time zone crossing. See the CSZ9576 flight status page for this flight to view local times or setup timezone preferences in your user account.

Time Position Orientation Groundspeed Altitude Reporting Facility
EDT Latitude Longitude Course Direction KTS MPH feet Rate Location/Type
Fri 11:31:00 AM 30.9948 119.9464 220° Southwest  Level Estimated
Fri 11:32:00 AM 30.9233 119.8778 219° Southwest  Level Estimated
Fri 11:33:00 AM 30.8517 119.8093 219° Southwest  Level Estimated
Fri 11:34:00 AM 30.7801 119.7409 219° Southwest  Level Estimated
Fri 11:35:00 AM 30.7085 119.6726 219° Southwest  Level Estimated
Fri 11:36:00 AM 30.6368 119.6044 219° Southwest  Level Estimated
Fri 11:37:00 AM 30.5651 119.5364 219° Southwest  Level Estimated
Fri 11:38:00 AM 30.4933 119.4684 219° Southwest  Level Estimated
Fri 11:39:00 AM 30.4216 119.4005 219° Southwest  Level Estimated
Fri 11:40:00 AM 30.3497 119.3327 219° Southwest  Level Estimated
Fri 11:41:00 AM 30.2779 119.2650 219° Southwest  Level Estimated
Fri 11:42:00 AM 30.2060 119.1974 219° Southwest  Level Estimated
Fri 11:43:00 AM 30.1341 119.1300 219° Southwest  Level Estimated
Fri 11:44:00 AM 30.0621 119.0626 219° Southwest  Level Estimated
Fri 11:45:00 AM 29.9902 118.9953 219° Southwest  Level Estimated
Fri 11:46:00 AM 29.9181 118.9281 219° Southwest  Level Estimated
Fri 11:47:00 AM 29.8461 118.8610 219° Southwest  Level Estimated
Fri 11:48:00 AM 29.7740 118.7940 219° Southwest  Level Estimated
Fri 11:49:00 AM 29.7019 118.7271 219° Southwest  Level Estimated
Fri 11:50:00 AM 29.6297 118.6603 219° Southwest  Level Estimated
Fri 11:51:00 AM 29.5575 118.5936 219° Southwest  Level Estimated
Fri 11:52:00 AM 29.4853 118.5270 219° Southwest  Level Estimated
Fri 11:53:00 AM 29.4130 118.4604 219° Southwest  Level Estimated
Fri 11:54:00 AM 29.3408 118.3940 219° Southwest  Level Estimated
Fri 11:55:00 AM 29.2684 118.3277 219° Southwest  Level Estimated
Fri 11:56:00 AM 29.1961 118.2615 219° Southwest  Level Estimated
Fri 11:57:00 AM 29.1237 118.1953 219° Southwest  Level Estimated
Fri 11:58:00 AM 29.0513 118.1292 219° Southwest  Level Estimated
Fri 11:59:00 AM 28.9788 118.0633 219° Southwest  Level Estimated
Fri 12:00:00 PM 28.9063 117.9974 219° Southwest  Level Estimated
Fri 12:01:00 PM 28.8338 117.9316 218° Southwest  Level Estimated
Fri 12:02:00 PM 28.7613 117.8660 218° Southwest  Level Estimated
Fri 12:03:00 PM 28.6887 117.8004 218° Southwest  Level Estimated
Fri 12:04:00 PM 28.6161 117.7349 218° Southwest  Level Estimated
Fri 12:05:00 PM 28.5435 117.6695 218° Southwest  Level Estimated
Fri 12:06:00 PM 28.4708 117.6041 218° Southwest  Level Estimated
Fri 12:07:00 PM 28.3981 117.5389 218° Southwest  Level Estimated
Fri 12:08:00 PM 28.3253 117.4738 218° Southwest  Level Estimated
Fri 12:09:00 PM 28.2526 117.4087 218° Southwest  Level Estimated
Fri 12:10:00 PM 28.1798 117.3438 218° Southwest  Level Estimated
Fri 12:11:00 PM 28.1070 117.2789 218° Southwest  Level Estimated
Fri 12:12:00 PM 28.0341 117.2141 218° Southwest  Level Estimated
Fri 12:13:00 PM 27.9612 117.1494 218° Southwest  Level Estimated
Fri 12:14:00 PM 27.8883 117.0848 218° Southwest  Level Estimated
Fri 12:15:00 PM 27.8153 117.0203 218° Southwest  Level Estimated
Fri 12:16:00 PM 27.7424 116.9558 218° Southwest  Level Estimated
Fri 12:17:00 PM 27.6694 116.8915 218° Southwest  Level Estimated
Fri 12:18:00 PM 27.5963 116.8272 218° Southwest  Level Estimated
Fri 12:19:00 PM 27.5233 116.7630 218° Southwest  Level Estimated
Fri 12:20:00 PM 27.4501 116.6989 218° Southwest  Level Estimated
Fri 12:21:00 PM 27.3770 116.6349 218° Southwest  Level Estimated
Fri 12:22:00 PM 27.3039 116.5710 218° Southwest  Level Estimated
Fri 12:23:00 PM 27.2307 116.5072 218° Southwest  Level Estimated
Fri 12:24:00 PM 27.1575 116.4434 218° Southwest  Level Estimated
Fri 12:25:00 PM 27.0842 116.3797 218° Southwest  Level Estimated
Fri 12:26:00 PM 27.0110 116.3161 218° Southwest  Level Estimated
Fri 12:27:00 PM 26.9377 116.2526 218° Southwest  Level Estimated
Fri 12:28:00 PM 26.8643 116.1892 218° Southwest  Level Estimated
Fri 12:29:00 PM 26.7910 116.1259 218° Southwest  Level Estimated
Fri 12:30:00 PM 26.7176 116.0626 218° Southwest  Level Estimated
Fri 12:31:00 PM 26.6442 115.9994 218° Southwest  Level Estimated
Fri 12:32:00 PM 26.5707 115.9363 218° Southwest  Level Estimated
Fri 12:33:00 PM 26.4973 115.8733 218° Southwest  Level Estimated
Fri 12:34:00 PM 26.4238 115.8104 217° Southwest  Level Estimated
Fri 12:35:00 PM 26.3503 115.7475 217° Southwest  Level Estimated
Fri 12:36:00 PM 26.2767 115.6848 217° Southwest  Level Estimated
Fri 12:37:00 PM 26.2031 115.6220 217° Southwest  Level Estimated
Fri 12:38:00 PM 26.1295 115.5594 217° Southwest  Level Estimated
Fri 12:39:00 PM 26.0559 115.4969 217° Southwest  Level Estimated
Fri 12:40:00 PM 25.9822 115.4344 217° Southwest  Level Estimated
Fri 12:41:00 PM 25.9086 115.3720 217° Southwest  Level Estimated
Fri 12:42:00 PM 25.8348 115.3098 217° Southwest  Level Estimated
Fri 12:43:00 PM 25.7611 115.2475 217° Southwest  Level Estimated
Fri 12:44:00 PM 25.6873 115.1854 217° Southwest  Level Estimated
Fri 12:45:00 PM 25.6136 115.1233 217° Southwest  Level Estimated
Fri 12:46:00 PM 25.5397 115.0613 217° Southwest  Level Estimated
Fri 12:47:00 PM 25.4659 114.9994 217° Southwest  Level Estimated
Fri 12:48:00 PM 25.3920 114.9375 217° Southwest  Level Estimated
Fri 12:49:00 PM 25.3181 114.8758 217° Southwest  Level Estimated
Fri 12:50:00 PM 25.2442 114.8141 217° Southwest  Level Estimated
Fri 12:51:00 PM 25.1702 114.7525 217° Southwest  Level Estimated
Fri 12:52:00 PM 25.0963 114.6909 217° Southwest  Level Estimated
Fri 12:53:00 PM 25.0223 114.6295 217° Southwest  Level Estimated
Fri 12:54:00 PM 24.9483 114.5681 217° Southwest  Level Estimated
Fri 12:55:00 PM 24.8742 114.5067 217° Southwest  Level Estimated
Fri 12:56:00 PM 24.8001 114.4455 217° Southwest  Level Estimated
Fri 12:57:00 PM 24.7260 114.3843 217° Southwest  Level Estimated
Fri 12:58:00 PM 24.6519 114.3232 217° Southwest  Level Estimated
Fri 12:59:00 PM 24.5778 114.2622 217° Southwest  Level Estimated
Fri 01:00:00 PM 24.5036 114.2012 217° Southwest  Level Estimated
Fri 01:01:00 PM 24.4294 114.1404 217° Southwest  Level Estimated
Fri 01:02:00 PM 24.3552 114.0795 217° Southwest  Level Estimated
Fri 01:03:00 PM 24.2809 114.0188 217° Southwest  Level Estimated
Fri 01:04:00 PM 24.2067 113.9581 217° Southwest  Level Estimated
Fri 01:05:00 PM 24.1324 113.8975 217° Southwest  Level Estimated
Fri 01:06:00 PM 24.0581 113.8370 217° Southwest  Level Estimated
Fri 01:07:00 PM 23.9837 113.7765 217° Southwest  Level Estimated
Fri 01:08:00 PM 23.9094 113.7161 217° Southwest  Level Estimated
Fri 01:09:00 PM 23.8350 113.6558 217° Southwest  Level Estimated
Fri 01:10:00 PM 23.7606 113.5956 217° Southwest  Level Estimated
Fri 01:11:00 PM 23.6861 113.5354 217° Southwest  Level Estimated
Fri 01:12:00 PM 23.6117 113.4753 216° Southwest  Level Estimated
Fri 01:13:00 PM 23.5372 113.4152 216° Southwest  Level Estimated
Fri 01:14:00 PM 23.4627 113.3553 216° Southwest  Level Estimated
Fri 01:15:00 PM 23.3924 113.2988 216° Southwest  Level Estimated
Fri 01:16:00 PM 23.3924 113.2988 North  Level Estimated
Fri 01:17:00 PM 23.3924 113.2988 North  Level Estimated
Fri 01:18:00 PM 23.3924 113.2988 North  Level Estimated
Fri 01:19:00 PM 23.3924 113.2988 North  Level Estimated
Fri 01:20:00 PM 23.3924 113.2988 North  Level Estimated
Fri 01:21:00 PM 23.3924 113.2988 North  Level Estimated
Fri 01:22:00 PM 23.3924 113.2988 North  Level Estimated
Fri 01:23:00 PM 23.3924 113.2988 North  Level Estimated
Fri 01:24:00 PM 23.3924 113.2988 North  Level Estimated
Fri 01:25:00 PM 23.3924 113.2988 North  Level Estimated
Fri 01:26:00 PM 23.3924 113.2988 North  Level Estimated
Fri 01:27:00 PM 23.3924 113.2988 North  Level Estimated
Fri 01:28:00 PM 23.3924 113.2988 North  Level Estimated
Fri 01:29:00 PM 23.3924 113.2988 North  Level Estimated
Fri 01:30:00 PM 23.3924 113.2988 North  Level Estimated
Fri 01:31:00 PM 23.3924 113.2988 North  Level Estimated

Login

Don't have an account? Register now (free) for customized features, flight alerts, and more!